Time;durP1;ratioP1;P1;durP2;ratioP2;P2;SDS_P1;SDS_P2;PMS_P1;PMS_P2;Temp;Humidity;BMP_temperature;BMP_pressure;BME280_temperature;BME280_humidity;BME280_pressure;Samples;Min_cycle;Max_cycle;Signal;HPM_P1;HPM_P2
2022/09/27 03:58:32;;;;;;;26.35;15.15;;;;;;;11.75;100.00;99046.81;6658655;26;19982;-89
2022/09/27 04:01:40;;;;;;;21.85;12.43;;;;;;;11.70;100.00;99052.88;6662044;26;107299;-91
2022/09/27 04:04:47;;;;;;;27.90;13.95;;;;;;;11.66;100.00;99050.81;6666207;26;33709;-89
2022/09/27 04:11:56;;;;;;;24.60;13.40;;;;;;;11.55;100.00;99045.09;6667415;26;20070;-89
2022/09/27 04:14:59;;;;;;;28.52;15.55;;;;;;;11.53;100.00;99047.16;6666653;26;34652;-89
2022/09/27 04:18:05;;;;;;;31.48;16.67;;;;;;;11.52;100.00;99044.69;6657509;26;33932;-91
2022/09/27 04:21:11;;;;;;;30.55;15.50;;;;;;;11.50;100.00;99047.59;6666247;26;34330;-89
2022/09/27 04:24:15;;;;;;;39.20;17.65;;;;;;;11.50;100.00;99050.28;6666658;26;35069;-91
2022/09/27 04:27:54;;;;;;;37.47;18.08;;;;;;;11.52;100.00;99045.53;6657052;26;34849;-90
2022/09/27 04:30:56;;;;;;;40.65;16.90;;;;;;;11.44;100.00;99039.56;6640679;26;33033;-90
2022/09/27 04:34:01;;;;;;;33.88;16.35;;;;;;;11.40;100.00;99039.16;6639989;26;32342;-91
2022/09/27 04:37:04;;;;;;;37.90;17.35;;;;;;;11.37;100.00;99023.41;6662003;26;33729;-88
2022/09/27 04:40:09;;;;;;;37.05;17.62;;;;;;;11.39;100.00;99029.41;6668972;26;34237;-91
2022/09/27 04:43:12;;;;;;;34.25;17.02;;;;;;;11.40;100.00;99032.94;6666641;26;34043;-91
2022/09/27 04:46:15;;;;;;;35.25;17.67;;;;;;;11.41;100.00;99034.56;6670376;26;34979;-89
2022/09/27 04:49:58;;;;;;;42.83;18.23;;;;;;;11.46;100.00;99023.97;6670040;26;20087;-88
2022/09/27 04:53:01;;;;;;;35.97;18.87;;;;;;;11.51;100.00;99030.38;6661797;26;34813;-89
2022/09/27 04:56:06;;;;;;;31.90;18.02;;;;;;;11.50;100.00;99023.34;6659663;26;34794;-88
2022/09/27 04:59:10;;;;;;;48.20;19.83;;;;;;;11.54;100.00;99021.84;6658715;26;34084;-91
2022/09/27 05:02:14;;;;;;;48.95;17.80;;;;;;;11.50;100.00;99026.03;6661506;26;33649;-88
2022/09/27 05:05:17;;;;;;;43.33;18.65;;;;;;;11.57;100.00;99023.28;6659071;26;33267;-89
2022/09/27 05:08:21;;;;;;;53.80;18.48;;;;;;;11.61;100.00;99024.50;6665884;26;34692;-89
2022/09/27 05:11:29;;;;;;;37.87;19.73;;;;;;;11.66;100.00;99013.91;6659871;26;34328;-89
2022/09/27 05:14:33;;;;;;;46.70;21.12;;;;;;;11.76;100.00;99005.34;6665229;26;33571;-88
2022/09/27 05:17:36;;;;;;;43.10;19.92;;;;;;;11.84;100.00;98998.84;6662790;26;34967;-90
2022/09/27 05:20:43;;;;;;;36.10;19.95;;;;;;;11.88;100.00;99011.69;6657938;26;34719;-89
2022/09/27 05:23:47;;;;;;;42.10;22.27;;;;;;;11.97;100.00;99018.47;6663446;26;34693;-89
2022/09/27 05:26:49;;;;;;;40.70;20.35;;;;;;;11.97;100.00;99012.25;6638180;26;33144;-88
2022/09/27 05:29:54;;;;;;;42.88;21.48;;;;;;;12.07;100.00;99007.16;6665199;26;34075;-91
2022/09/27 05:32:57;;;;;;;40.75;22.75;;;;;;;12.12;100.00;98999.25;6670541;26;34603;-89
2022/09/27 05:36:05;;;;;;;40.25;20.33;;;;;;;12.13;100.00;99000.88;6651731;26;33181;-89
2022/09/27 05:39:08;;;;;;;38.80;21.12;;;;;;;12.14;100.00;99002.56;6666728;26;34273;-88
2022/09/27 05:42:14;;;;;;;38.03;20.62;;;;;;;12.21;100.00;98994.37;6659627;26;34593;-89
2022/09/27 05:45:17;;;;;;;36.03;20.83;;;;;;;12.34;100.00;98982.63;6665575;26;34517;-89
2022/09/27 05:48:21;;;;;;;36.30;20.37;;;;;;;12.36;100.00;98980.53;6661721;26;34578;-89
2022/09/27 05:51:27;;;;;;;36.72;21.27;;;;;;;12.31;100.00;98983.91;6665473;26;33693;-89
2022/09/27 05:54:33;;;;;;;38.40;20.10;;;;;;;12.29;100.00;98975.22;6638739;26;32682;-91
2022/09/27 06:01:53;;;;;;;36.63;19.52;;;;;;;12.24;100.00;98973.19;6662457;26;20341;-90
2022/09/27 06:09:01;;;;;;;31.73;17.10;;;;;;;12.23;100.00;98981.50;6666034;26;20051;-91
2022/09/27 06:23:23;;;;;;;31.80;18.62;;;;;;;12.29;100.00;99001.38;6626344;26;35232;-90
2022/09/27 06:26:26;;;;;;;39.90;18.62;;;;;;;12.42;100.00;98996.66;6638556;26;33432;-90
2022/09/27 06:33:37;;;;;;;38.33;19.52;;;;;;;12.46;100.00;98984.38;6664216;26;20042;-89
2022/09/27 06:36:40;;;;;;;38.50;19.98;;;;;;;12.48;100.00;98990.34;6663386;26;33806;-89
2022/09/27 06:40:08;;;;;;;31.15;17.58;;;;;;;12.59;100.00;98987.97;6659189;26;33580;-90
2022/09/27 06:47:22;;;;;;;35.42;17.65;;;;;;;12.80;100.00;98992.91;6664626;26;20064;-90
2022/09/27 06:50:25;;;;;;;32.20;17.02;;;;;;;12.74;100.00;98983.00;6642685;26;32889;-90
2022/09/27 06:53:28;;;;;;;30.40;16.55;;;;;;;12.67;100.00;98982.28;6662818;26;34688;-89
2022/09/27 06:56:31;;;;;;;31.20;16.55;;;;;;;12.82;100.00;98985.41;6642635;26;33945;-90
2022/09/27 07:03:04;;;;;;;;;;;;;;;12.68;100.00;98978.53;6663673;26;35016;-90
2022/09/27 07:06:17;;;;;;;29.85;17.65;;;;;;;12.81;100.00;98972.13;6662882;26;34409;-87
2022/09/27 07:09:20;;;;;;;32.63;17.52;;;;;;;12.89;100.00;98975.34;6663081;26;34636;-87
2022/09/27 07:12:23;;;;;;;30.05;16.83;;;;;;;12.86;100.00;98991.19;6662491;26;34763;-87
2022/09/27 07:15:28;;;;;;;28.62;17.70;;;;;;;12.89;100.00;98996.94;6662285;26;35057;-87
2022/09/27 07:18:31;;;;;;;28.65;17.30;;;;;;;12.98;100.00;99002.03;6662485;26;33926;-87
2022/09/27 07:21:34;;;;;;;27.75;17.90;;;;;;;13.08;100.00;98999.66;6662374;26;33942;-87
2022/09/27 07:24:37;;;;;;;29.37;17.20;;;;;;;13.36;100.00;99007.19;6662787;26;34335;-90
2022/09/27 07:27:40;;;;;;;32.45;18.40;;;;;;;13.42;100.00;99000.03;6663427;26;34853;-88
2022/09/27 07:30:44;;;;;;;27.75;17.98;;;;;;;13.37;100.00;98989.91;6660880;26;34192;-90
2022/09/27 07:33:47;;;;;;;29.80;18.05;;;;;;;13.80;100.00;98989.66;6664197;26;34101;-90
2022/09/27 07:36:50;;;;;;;25.98;16.20;;;;;;;14.21;100.00;99001.44;6657973;26;35280;-90
2022/09/27 07:44:00;;;;;;;26.58;16.05;;;;;;;14.80;100.00;99006.88;6675787;26;20035;-89
2022/09/27 07:54:55;;;;;;;24.52;15.52;;;;;;;15.31;100.00;98983.47;6664101;26;20406;-90
2022/09/27 07:58:10;;;;;;;27.08;14.40;;;;;;;15.34;100.00;98980.25;6655497;26;34044;-90
2022/09/27 08:01:15;;;;;;;21.20;13.82;;;;;;;15.39;100.00;98974.13;6636090;26;32699;-89
2022/09/27 08:04:18;;;;;;;19.20;12.93;;;;;;;15.80;100.00;98980.28;6663040;26;34895;-90
2022/09/27 08:07:21;;;;;;;19.48;13.57;;;;;;;15.98;100.00;98980.03;6663334;26;34274;-91
2022/09/27 08:10:30;;;;;;;20.65;13.15;;;;;;;16.00;100.00;98979.75;6658278;26;34720;-90
2022/09/27 08:13:33;;;;;;;24.17;13.27;;;;;;;16.05;100.00;98977.94;6665420;26;35502;-93
2022/09/27 08:16:36;;;;;;;20.15;12.30;;;;;;;16.26;97.37;98968.25;6665302;26;35439;-91
2022/09/27 08:19:43;;;;;;;21.23;13.80;;;;;;;16.37;96.77;98957.50;6665713;26;32895;-91
2022/09/27 08:22:47;;;;;;;19.37;12.77;;;;;;;16.28;96.25;98946.25;6644401;26;33991;-90
2022/09/27 08:25:52;;;;;;;18.00;12.10;;;;;;;16.17;96.41;98952.59;6681769;26;34256;-90
2022/09/27 08:28:56;;;;;;;16.55;11.57;;;;;;;16.16;97.33;98961.81;6657759;26;32823;-90
2022/09/27 08:35:47;;;;;;;23.25;12.10;;;;;;;15.90;99.67;98966.88;6650848;26;32622;-90
2022/09/27 08:38:51;;;;;;;17.55;11.93;;;;;;;15.65;99.57;98965.34;6643069;26;33131;-90
2022/09/27 08:50:09;;;;;;;18.33;12.73;;;;;;;15.52;100.00;98956.69;6586727;26;33704;-88
2022/09/27 08:53:20;;;;;;;18.30;12.18;;;;;;;15.43;100.00;98950.84;6665266;26;34135;-89
2022/09/27 08:56:25;;;;;;;17.90;11.80;;;;;;;15.55;100.00;98946.19;6666996;26;33868;-90
2022/09/27 08:59:33;;;;;;;16.70;11.90;;;;;;;15.57;100.00;98946.75;6643668;26;32514;-90
2022/09/27 09:02:37;;;;;;;17.60;12.25;;;;;;;15.91;100.00;98945.97;6664493;26;33783;-88
2022/09/27 09:05:39;;;;;;;17.50;11.90;;;;;;;16.12;100.00;98956.09;6665354;26;34654;-88
2022/09/27 09:08:55;;;;;;;16.37;11.48;;;;;;;16.29;100.00;98964.19;6645709;26;32724;-88
2022/09/27 09:15:57;;;;;;;18.05;11.93;;;;;;;15.82;100.00;98954.53;6665179;26;34035;-89
2022/09/27 09:19:15;;;;;;;22.00;11.75;;;;;;;15.73;100.00;98952.47;6665324;26;34784;-89
2022/09/27 09:22:54;;;;;;;17.70;11.40;;;;;;;15.69;100.00;98946.72;6665780;26;35373;-89
2022/09/27 09:26:28;;;;;;;16.20;11.73;;;;;;;15.56;100.00;98941.56;6585971;26;32418;-91
2022/09/27 09:29:49;;;;;;;19.62;11.50;;;;;;;15.43;100.00;98929.16;6625087;26;34878;-88
2022/09/27 09:32:58;;;;;;;22.33;11.38;;;;;;;15.38;100.00;98924.47;6658112;26;34425;-88
2022/09/27 09:36:10;;;;;;;19.37;12.33;;;;;;;15.46;100.00;98919.72;6656680;26;33824;-89
2022/09/27 09:39:22;;;;;;;18.95;11.75;;;;;;;15.25;100.00;98907.69;6656248;26;34026;-89
2022/09/27 09:42:39;;;;;;;18.70;11.82;;;;;;;15.38;100.00;98897.34;6642883;26;33855;-89
2022/09/27 09:45:47;;;;;;;18.77;11.52;;;;;;;15.19;100.00;98891.34;6663493;26;34302;-88
2022/09/27 09:49:14;;;;;;;16.25;11.25;;;;;;;15.04;100.00;98896.50;6663674;26;34457;-88
2022/09/27 09:52:23;;;;;;;16.73;12.05;;;;;;;15.01;100.00;98898.88;6663665;26;34800;-91
2022/09/27 09:55:32;;;;;;;16.98;11.52;;;;;;;14.98;100.00;98900.19;6664008;26;33680;-91
2022/09/27 09:58:45;;;;;;;18.00;11.82;;;;;;;14.72;100.00;98907.00;6663581;26;34997;-91
2022/09/27 10:01:48;;;;;;;18.20;12.10;;;;;;;14.59;100.00;98899.94;6643859;26;33624;-91
2022/09/27 10:04:53;;;;;;;17.10;11.50;;;;;;;14.65;100.00;98896.28;6643499;26;33023;-90
2022/09/27 10:08:06;;;;;;;18.75;12.05;;;;;;;14.74;100.00;98896.72;6643816;26;32386;-91
2022/09/27 10:11:21;;;;;;;17.05;11.95;;;;;;;14.70;100.00;98887.44;6664040;26;33738;-90
2022/09/27 10:14:26;;;;;;;19.10;12.63;;;;;;;14.59;100.00;98891.81;6665430;26;34743;-89
2022/09/27 10:17:43;;;;;;;21.05;11.63;;;;;;;14.43;100.00;98887.16;6671571;26;35353;-88
2022/09/27 10:21:00;;;;;;;18.62;12.23;;;;;;;14.49;100.00;98891.59;6643047;26;32779;-91
2022/09/27 10:24:12;;;;;;;18.45;11.40;;;;;;;14.51;100.00;98881.37;6664124;26;33898;-90
2022/09/27 10:27:24;;;;;;;18.80;11.97;;;;;;;14.52;100.00;98880.31;6667987;26;34103;-89
2022/09/27 10:30:34;;;;;;;17.90;11.10;;;;;;;14.54;100.00;98870.06;6667304;26;35222;-89
2022/09/27 10:33:49;;;;;;;17.65;11.77;;;;;;;14.50;100.00;98866.16;6646206;26;32431;-86
2022/09/27 10:37:11;;;;;;;20.15;12.73;;;;;;;14.53;100.00;98865.72;6665838;26;35404;-88
2022/09/27 10:40:26;;;;;;;19.98;13.18;;;;;;;14.66;100.00;98865.44;6668698;26;34125;-88
2022/09/27 10:43:34;;;;;;;18.58;11.82;;;;;;;14.65;100.00;98868.38;6645771;26;32244;-88
2022/09/27 10:46:50;;;;;;;;;;;;;;;14.60;100.00;98869.12;6644929;26;32820;-87
2022/09/27 10:50:05;;;;;;;18.98;12.15;;;;;;;14.69;100.00;98866.84;6664212;26;34638;-89
2022/09/27 10:53:19;;;;;;;17.73;11.68;;;;;;;14.75;100.00;98857.75;6643607;26;33393;-89
2022/09/27 10:56:27;;;;;;;18.45;11.80;;;;;;;14.79;100.00;98856.19;6642423;26;33676;-89
2022/09/27 10:59:38;;;;;;;19.48;11.82;;;;;;;14.89;100.00;98855.56;6661967;26;32572;-89
2022/09/27 11:02:42;;;;;;;17.50;11.80;;;;;;;14.90;100.00;98854.50;6675663;26;36955;-89
2022/09/27 11:05:46;;;;;;;19.10;11.20;;;;;;;14.94;100.00;98850.22;6677977;26;35501;-89
2022/09/27 11:08:51;;;;;;;16.40;10.90;;;;;;;14.90;100.00;98843.66;6658852;26;34757;-89
2022/09/27 11:12:12;;;;;;;17.65;12.10;;;;;;;14.78;100.00;98846.41;6676959;26;33849;-90
2022/09/27 11:15:18;;;;;;;20.33;10.85;;;;;;;14.82;100.00;98836.72;6658448;26;34259;-89
2022/09/27 11:18:26;;;;;;;18.25;11.12;;;;;;;14.82;100.00;98842.16;6629419;26;32400;-91
2022/09/27 11:21:41;;;;;;;18.37;11.30;;;;;;;14.77;100.00;98839.38;6652467;26;33630;-89
2022/09/27 11:24:44;;;;;;;17.45;11.48;;;;;;;14.66;100.00;98835.63;6647339;26;34331;-90
2022/09/27 11:28:23;;;;;;;17.50;11.20;;;;;;;14.64;100.00;98829.63;6634637;26;35216;-91
2022/09/27 11:31:35;;;;;;;15.25;11.10;;;;;;;14.78;100.00;98826.66;6634736;26;34158;-90
2022/09/27 11:34:56;;;;;;;16.20;10.93;;;;;;;14.91;100.00;98818.19;6633747;26;34232;-90
2022/09/27 11:38:16;;;;;;;20.15;11.98;;;;;;;15.12;100.00;98814.78;6637309;26;33626;-90
2022/09/27 11:41:57;;;;;;;15.98;10.68;;;;;;;15.25;100.00;98810.91;6636205;26;34837;-90
2022/09/27 11:45:29;;;;;;;18.62;10.98;;;;;;;15.49;100.00;98799.88;6639407;26;34069;-90
2022/09/27 11:48:58;;;;;;;14.93;9.88;;;;;;;15.80;100.00;98801.19;6647361;26;32467;-88
2022/09/27 11:52:41;;;;;;;15.45;10.20;;;;;;;16.12;100.00;98790.47;6645972;26;34720;-88
2022/09/27 11:56:21;;;;;;;13.85;9.65;;;;;;;16.40;100.00;98783.16;6591934;26;34296;-88
2022/09/27 11:59:50;;;;;;;15.60;9.63;;;;;;;17.00;100.00;98785.69;6634782;26;34232;-90
2022/09/27 12:03:16;;;;;;;15.02;10.02;;;;;;;16.80;100.00;98787.41;6635801;26;34656;-90
2022/09/27 12:06:55;;;;;;;14.30;9.23;;;;;;;16.58;100.00;98776.56;6634497;26;33159;-90
2022/09/27 12:10:03;;;;;;;13.43;9.60;;;;;;;16.46;100.00;98771.28;6557118;26;35266;-90
2022/09/27 12:13:12;;;;;;;13.62;9.65;;;;;;;16.18;100.00;98758.78;6634316;26;32943;-90
2022/09/27 12:16:19;;;;;;;15.10;9.65;;;;;;;16.12;100.00;98755.19;6647269;26;33355;-90
2022/09/27 12:19:30;;;;;;;16.20;10.02;;;;;;;16.10;100.00;98758.13;6654654;26;33727;-90
2022/09/27 12:22:43;;;;;;;14.95;9.57;;;;;;;16.38;100.00;98745.41;6651908;26;33845;-90
2022/09/27 12:26:19;;;;;;;18.80;10.93;;;;;;;16.57;100.00;98742.34;6644535;26;32904;-90
2022/09/27 12:29:33;;;;;;;15.88;10.25;;;;;;;17.24;100.00;98749.97;6664810;26;34692;-90
2022/09/27 12:32:49;;;;;;;14.50;9.70;;;;;;;17.35;100.00;98743.53;6640104;26;32542;-90
2022/09/27 12:36:03;;;;;;;14.48;9.77;;;;;;;17.27;99.74;98741.31;6620138;26;32998;-88
2022/09/27 12:39:21;;;;;;;16.45;9.48;;;;;;;17.06;100.00;98740.34;6647354;26;33153;-90
2022/09/27 12:42:48;;;;;;;13.48;9.43;;;;;;;17.02;100.00;98733.75;6646599;26;32943;-90
2022/09/27 12:46:13;;;;;;;15.02;9.40;;;;;;;17.06;100.00;98732.19;6668580;26;33855;-90
2022/09/27 12:49:31;;;;;;;14.10;8.40;;;;;;;16.95;100.00;98720.41;6652621;26;32490;-91
2022/09/27 12:52:43;;;;;;;15.63;9.05;;;;;;;16.71;100.00;98719.91;6662619;26;35421;-88
2022/09/27 12:55:54;;;;;;;16.15;9.50;;;;;;;16.40;100.00;98713.37;6664530;26;33952;-90
2022/09/27 12:59:11;;;;;;;15.38;10.38;;;;;;;16.07;100.00;98725.25;6645970;26;33297;-90
2022/09/27 13:02:26;;;;;;;24.37;12.23;;;;;;;15.68;100.00;98717.19;6642586;26;32503;-89
2022/09/27 13:06:10;;;;;;;19.17;11.73;;;;;;;15.16;100.00;98714.81;6663043;26;33989;-89
2022/09/27 13:09:45;;;;;;;17.80;10.95;;;;;;;15.23;100.00;98709.19;6665382;26;34074;-89
2022/09/27 13:12:53;;;;;;;13.80;9.32;;;;;;;18.13;100.00;98707.44;6665948;26;34951;-89
2022/09/27 13:15:59;;;;;;;15.40;9.30;;;;;;;20.00;94.61;98701.28;6645504;26;32499;-89
2022/09/27 13:19:03;;;;;;;16.02;9.77;;;;;;;19.55;93.56;98705.81;6646289;26;32709;-89
2022/09/27 13:22:26;;;;;;;15.98;9.82;;;;;;;18.38;100.00;98700.44;6646523;26;32885;-90
2022/09/27 13:25:53;;;;;;;15.70;10.25;;;;;;;17.59;100.00;98691.44;6646322;26;32776;-89
2022/09/27 13:29:02;;;;;;;16.00;10.23;;;;;;;17.11;100.00;98698.75;6645762;26;32756;-90
2022/09/27 13:32:20;;;;;;;13.95;9.38;;;;;;;17.41;100.00;98696.25;6666232;26;34493;-89
2022/09/27 13:35:25;;;;;;;13.55;9.05;;;;;;;18.97;98.52;98694.47;6646065;26;33176;-89
2022/09/27 13:38:31;;;;;;;12.40;8.57;;;;;;;19.06;99.51;98692.00;6665932;26;35278;-89
2022/09/27 13:41:43;;;;;;;14.38;9.20;;;;;;;20.56;93.07;98681.87;6643542;26;34235;-89
2022/09/27 13:45:18;;;;;;;11.77;8.10;;;;;;;22.36;81.15;98678.81;6645269;26;32586;-89
2022/09/27 13:48:27;;;;;;;12.35;8.30;;;;;;;21.26;82.94;98686.16;6665477;26;34744;-93
2022/09/27 13:51:52;;;;;;;;;;;;;;;20.07;88.63;98681.87;6665990;26;33983;-89
2022/09/27 13:54:57;;;;;;;16.62;9.30;;;;;;;19.17;95.32;98671.81;6664417;26;34002;-87
2022/09/27 13:58:04;;;;;;;12.57;8.48;;;;;;;18.58;100.00;98665.03;6642493;26;33712;-87
2022/09/27 14:01:29;;;;;;;15.15;9.43;;;;;;;18.10;100.00;98661.69;6663520;26;34056;-87
2022/09/27 14:04:50;;;;;;;12.60;8.23;;;;;;;17.61;100.00;98662.88;6663925;26;34878;-89
2022/09/27 14:07:55;;;;;;;9.80;6.60;;;;;;;17.32;100.00;98664.38;6663650;26;34305;-89
2022/09/27 14:11:00;;;;;;;7.70;5.70;;;;;;;17.15;100.00;98661.81;6665210;26;34602;-89
2022/09/27 14:14:12;;;;;;;11.05;6.70;;;;;;;16.83;100.00;98662.69;6643348;26;33002;-87
2022/09/27 14:17:16;;;;;;;4.62;3.72;;;;;;;16.68;100.00;98690.53;6663773;26;33830;-87
2022/09/27 14:20:30;;;;;;;4.32;2.87;;;;;;;16.27;100.00;98711.88;6672657;26;34462;-90
2022/09/27 14:23:36;;;;;;;2.83;2.47;;;;;;;15.38;100.00;98728.41;6633078;26;34846;-87
2022/09/27 14:26:41;;;;;;;3.97;2.45;;;;;;;14.46;100.00;98733.13;6635481;26;32203;-87
2022/09/27 14:30:00;;;;;;;4.00;2.65;;;;;;;13.97;100.00;98745.47;6634687;26;32736;-87
2022/09/27 14:56:36;;;;;;;1.87;1.58;;;;;;;12.81;100.00;98765.03;6658649;26;20679;-88
2022/09/27 14:59:44;;;;;;;2.70;1.70;;;;;;;12.88;100.00;98759.50;6658128;26;33860;-88
2022/09/27 15:02:53;;;;;;;1.85;1.58;;;;;;;12.85;100.00;98763.50;6657589;26;33766;-89
2022/09/27 15:06:01;;;;;;;3.22;1.95;;;;;;;12.82;100.00;98763.94;6638595;26;35219;-89
2022/09/27 15:17:22;;;;;;;2.85;1.52;;;;;;;12.91;100.00;98757.16;6675656;26;20047;-89
2022/09/27 15:20:26;;;;;;;2.03;1.52;;;;;;;12.98;100.00;98767.84;6637299;26;32797;-90
2022/09/27 15:23:40;;;;;;;3.90;1.45;;;;;;;12.88;100.00;98763.03;6656000;26;34296;-90
2022/09/27 15:26:46;;;;;;;1.20;0.98;;;;;;;12.70;100.00;98771.22;6665121;26;33778;-88
2022/09/27 15:38:32;;;;;;;0.80;0.80;;;;;;;12.27;100.00;98776.81;6659671;26;20082;-88
2022/09/27 15:49:52;;;;;;;1.20;1.10;;;;;;;11.90;100.00;98799.22;6637449;26;20067;-89
2022/09/27 15:52:57;;;;;;;1.40;1.30;;;;;;;11.76;100.00;98801.25;6636589;26;33967;-88
2022/09/27 15:56:07;;;;;;;2.25;1.40;;;;;;;11.71;100.00;98809.19;6616503;26;32229;-88
